Time;durP1;ratioP1;P1;durP2;ratioP2;P2;SDS_P1;SDS_P2;PMS_P1;PMS_P2;Temp;Humidity;BMP_temperature;BMP_pressure;BME280_temperature;BME280_humidity;BME280_pressure;Samples;Min_cycle;Max_cycle;Signal;HPM_P1;HPM_P2
2022/10/04 00:00:50;;;;;;;2.20;1.85;;;;;;;10.66;57.83;95011.38;5042000;28;20029;-75
2022/10/04 00:03:19;;;;;;;3.85;1.90;;;;;;;10.64;58.03;95009.84;5058084;28;20060;-75
2022/10/04 00:05:51;;;;;;;2.83;1.83;;;;;;;10.71;57.94;95021.44;5038850;28;20033;-75
2022/10/04 00:08:19;;;;;;;5.18;2.15;;;;;;;10.56;58.08;95014.84;5057729;28;20044;-74
2022/10/04 00:10:45;;;;;;;2.58;2.05;;;;;;;10.47;58.74;95024.19;5058977;28;20486;-75
2022/10/04 00:13:22;;;;;;;2.80;2.13;;;;;;;10.47;58.64;95024.19;5064417;28;20093;-74
2022/10/04 00:15:48;;;;;;;4.80;2.08;;;;;;;10.57;58.48;95019.09;5034046;28;20041;-74
2022/10/04 00:18:13;;;;;;;3.47;2.05;;;;;;;10.58;58.59;95029.34;5031824;28;20094;-75
2022/10/04 00:20:52;;;;;;;2.28;1.65;;;;;;;10.67;58.58;95035.59;5054030;28;20111;-74
2022/10/04 00:23:23;;;;;;;4.07;1.90;;;;;;;10.61;58.41;95029.13;5068524;28;20032;-74
2022/10/04 00:25:57;;;;;;;3.03;2.35;;;;;;;10.47;58.99;95026.78;5069198;28;20032;-74
2022/10/04 00:28:49;;;;;;;2.88;2.20;;;;;;;10.46;58.81;95025.16;5068407;28;20033;-74
2022/10/04 00:31:27;;;;;;;2.85;2.10;;;;;;;10.37;58.70;95018.91;5065234;28;20098;-74
2022/10/04 00:33:55;;;;;;;2.47;1.77;;;;;;;10.40;58.79;95012.66;5068491;28;20040;-74
2022/10/04 00:36:23;;;;;;;3.03;1.90;;;;;;;10.38;58.69;95014.53;5068337;28;20515;-74
2022/10/04 00:39:04;;;;;;;2.20;1.73;;;;;;;10.38;58.52;95014.53;5070970;28;20033;-74
2022/10/04 00:41:48;;;;;;;2.30;1.85;;;;;;;10.29;57.64;95009.13;5069184;28;20040;-74
2022/10/04 00:44:27;;;;;;;4.13;1.70;;;;;;;10.36;57.15;95000.84;5068679;28;20118;-74
2022/10/04 00:46:53;;;;;;;3.22;2.17;;;;;;;10.34;57.16;94994.97;5052364;28;20040;-74
2022/10/04 00:49:20;;;;;;;3.40;1.90;;;;;;;10.19;56.90;95010.75;5069419;28;20032;-74
2022/10/04 00:51:55;;;;;;;3.88;2.17;;;;;;;10.23;56.78;94999.19;5052081;28;20029;-74
2022/10/04 00:54:27;;;;;;;2.40;1.98;;;;;;;10.29;56.91;94990.94;5053539;28;20517;-74
2022/10/04 00:57:12;;;;;;;3.78;2.08;;;;;;;10.36;56.56;94980.88;5053152;28;20044;-74
2022/10/04 00:59:41;;;;;;;2.65;1.60;;;;;;;10.31;56.71;94984.78;5069047;28;20121;-74
2022/10/04 01:02:18;;;;;;;2.58;1.63;;;;;;;10.32;56.58;94978.66;5068890;28;20029;-74
2022/10/04 01:05:05;;;;;;;2.65;1.45;;;;;;;10.26;56.06;94978.16;5069743;28;20039;-74
2022/10/04 01:07:48;;;;;;;2.00;1.42;;;;;;;10.33;55.87;94978.53;5052839;28;20104;-74
2022/10/04 01:10:46;;;;;;;2.97;1.50;;;;;;;10.36;55.39;94980.06;5052405;28;20044;-74
2022/10/04 01:13:20;;;;;;;3.33;1.52;;;;;;;10.40;55.15;94982.31;5068503;28;20056;-74
2022/10/04 01:16:06;;;;;;;2.13;1.33;;;;;;;10.42;55.20;94987.38;5071442;28;20129;-74
2022/10/04 01:18:33;;;;;;;1.70;1.30;;;;;;;10.18;55.08;94987.50;5072595;28;20032;-74
2022/10/04 01:21:18;;;;;;;2.67;1.50;;;;;;;10.09;55.15;94957.91;5055692;28;20036;-74
2022/10/04 01:23:44;;;;;;;2.28;1.40;;;;;;;10.14;55.68;94970.50;5052523;28;20033;-74
2022/10/04 01:26:33;;;;;;;3.00;1.40;;;;;;;10.22;55.77;94963.81;5035600;28;20037;-74
2022/10/04 01:29:23;;;;;;;3.63;1.48;;;;;;;10.09;55.84;94962.28;5053495;28;20029;-74
2022/10/04 01:31:51;;;;;;;3.00;1.25;;;;;;;10.09;55.98;94983.06;5036399;28;20033;-74
2022/10/04 01:34:24;;;;;;;4.10;1.80;;;;;;;10.04;55.77;94970.44;5038604;28;20419;-74
2022/10/04 01:36:51;;;;;;;4.32;1.67;;;;;;;9.94;55.92;94966.88;5055306;28;20131;-74
2022/10/04 01:39:17;;;;;;;3.10;1.45;;;;;;;9.92;55.12;94964.44;5055355;28;20500;-74
2022/10/04 01:41:46;;;;;;;2.53;1.50;;;;;;;9.96;55.61;94977.97;5038738;28;20060;-74
2022/10/04 01:44:32;;;;;;;3.17;1.40;;;;;;;9.96;55.24;94968.41;5072751;28;20036;-74
2022/10/04 01:47:00;;;;;;;2.80;1.60;;;;;;;9.90;55.12;94970.69;5055920;28;20025;-74
2022/10/04 01:49:28;;;;;;;3.00;1.55;;;;;;;10.01;54.90;94973.25;5038773;28;20086;-74
2022/10/04 01:52:04;;;;;;;2.47;1.50;;;;;;;9.99;54.60;94956.97;5071362;28;20418;-74
2022/10/04 01:54:47;;;;;;;2.58;1.50;;;;;;;9.97;54.83;94969.25;5055791;28;20094;-74
2022/10/04 01:57:18;;;;;;;2.63;1.60;;;;;;;10.07;55.33;94975.38;5056517;28;20108;-74
2022/10/04 01:59:51;;;;;;;2.03;1.50;;;;;;;10.06;55.03;94978.91;5054869;28;20028;-74
2022/10/04 02:02:29;;;;;;;2.35;1.60;;;;;;;10.07;54.80;94976.19;5055472;28;20040;-74
2022/10/04 02:04:56;;;;;;;2.97;1.33;;;;;;;10.16;54.76;94976.41;5070449;28;20438;-74
2022/10/04 02:07:21;;;;;;;2.92;1.70;;;;;;;10.19;55.15;94984.78;5037885;28;20568;-74
2022/10/04 02:09:47;;;;;;;2.55;1.70;;;;;;;10.08;55.41;94987.41;5054535;28;20035;-74
2022/10/04 02:12:17;;;;;;;2.42;1.60;;;;;;;10.07;55.63;94983.97;5038094;28;20032;-74
2022/10/04 02:14:47;;;;;;;2.03;1.42;;;;;;;10.05;55.93;94979.84;5054974;28;20025;-74
2022/10/04 02:17:12;;;;;;;1.90;1.40;;;;;;;10.06;55.87;94984.13;5053542;28;20032;-74
2022/10/04 02:19:41;;;;;;;2.55;1.40;;;;;;;10.09;55.82;94989.06;5037122;28;20037;-74
2022/10/04 02:22:08;;;;;;;2.17;1.17;;;;;;;10.14;56.12;95001.66;5037118;28;20571;-74
2022/10/04 02:24:36;;;;;;;1.85;1.30;;;;;;;10.12;56.29;94998.38;5071124;28;20034;-74
2022/10/04 02:27:02;;;;;;;3.67;1.48;;;;;;;10.16;56.48;95004.97;5053804;28;20021;-74
2022/10/04 02:29:27;;;;;;;3.03;1.23;;;;;;;10.08;56.88;94992.59;5037786;28;20047;-75
2022/10/04 02:34:36;;;;;;;2.50;1.30;;;;;;;10.11;57.25;95005.31;5056176;28;20089;-74
2022/10/04 02:37:03;;;;;;;3.08;1.40;;;;;;;10.12;57.39;95004.41;5071991;28;20436;-74
2022/10/04 02:39:37;;;;;;;4.70;2.85;;;;;;;10.16;57.57;95003.19;5053931;28;20036;-74
2022/10/04 02:42:25;;;;;;;3.17;2.00;;;;;;;10.08;57.74;94997.78;5054884;28;20032;-74
2022/10/04 02:45:22;;;;;;;2.03;1.60;;;;;;;10.16;57.67;95020.56;5071640;28;20135;-74
2022/10/04 02:47:54;;;;;;;3.90;2.00;;;;;;;10.12;57.74;95019.97;5067311;28;20050;-74
2022/10/04 02:50:29;;;;;;;2.60;1.90;;;;;;;10.18;58.15;95024.69;5037607;28;20042;-74
2022/10/04 02:52:57;;;;;;;2.58;1.63;;;;;;;10.14;58.12;95027.63;5037495;28;20115;-74
2022/10/04 02:55:26;;;;;;;3.47;1.70;;;;;;;10.08;58.42;95028.94;5037354;28;20025;-74
2022/10/04 02:57:52;;;;;;;3.30;2.72;;;;;;;10.13;58.64;95031.19;5054235;28;20044;-74
2022/10/04 03:00:20;;;;;;;2.60;1.73;;;;;;;10.13;58.69;95020.78;5037187;28;20037;-74
2022/10/04 03:03:07;;;;;;;4.10;1.70;;;;;;;10.20;58.93;95033.19;5037133;28;20096;-74
2022/10/04 03:05:32;;;;;;;2.97;1.70;;;;;;;10.23;58.97;95032.94;5071554;28;20039;-74
2022/10/04 03:07:58;;;;;;;2.42;1.75;;;;;;;10.22;58.93;95036.50;5069782;28;20037;-74
2022/10/04 03:10:24;;;;;;;2.97;1.80;;;;;;;10.28;58.85;95036.03;5054046;28;20032;-74
2022/10/04 03:12:50;;;;;;;2.85;1.65;;;;;;;10.32;58.48;95038.41;5053252;28;20028;-74
2022/10/04 03:15:15;;;;;;;2.92;1.80;;;;;;;10.34;58.63;95041.69;5053589;28;20033;-74
2022/10/04 03:17:41;;;;;;;2.42;1.77;;;;;;;10.19;58.94;95035.88;5047762;28;20078;-74
2022/10/04 03:20:08;;;;;;;2.30;1.70;;;;;;;10.21;59.14;95041.78;5051352;28;20040;-74
2022/10/04 03:22:33;;;;;;;3.47;2.30;;;;;;;10.20;59.30;95040.97;5051399;28;20038;-75
2022/10/04 03:24:59;;;;;;;3.88;2.25;;;;;;;10.24;59.44;95039.78;5068831;28;20470;-74
2022/10/04 03:27:27;;;;;;;4.35;2.45;;;;;;;10.31;59.56;95042.78;5068677;28;20032;-74
2022/10/04 03:29:52;;;;;;;2.58;2.00;;;;;;;10.31;59.51;95037.56;5036511;28;20037;-74
2022/10/04 03:32:18;;;;;;;3.47;2.50;;;;;;;10.41;58.85;95040.25;5036275;28;20178;-74
2022/10/04 03:35:02;;;;;;;4.88;3.08;;;;;;;10.33;58.65;95043.44;5053012;28;20032;-74
2022/10/04 03:37:28;;;;;;;2.80;2.30;;;;;;;10.31;58.69;95044.50;5054978;28;20079;-74
2022/10/04 03:39:54;;;;;;;5.82;1.80;;;;;;;10.38;57.88;95056.09;5052421;28;20036;-74
2022/10/04 03:42:21;;;;;;;3.67;2.08;;;;;;;10.29;57.97;95044.66;5035986;28;20472;-75
2022/10/04 03:44:48;;;;;;;3.97;2.53;;;;;;;10.38;57.88;95049.13;5052406;28;20086;-74
2022/10/04 03:47:20;;;;;;;3.72;2.67;;;;;;;10.43;57.86;95056.56;5052687;28;20025;-74
2022/10/04 03:49:45;;;;;;;2.20;1.50;;;;;;;10.39;57.73;95057.72;5052960;28;20028;-74
2022/10/04 03:52:31;;;;;;;2.80;1.80;;;;;;;10.29;58.03;95063.66;5052553;28;20497;-74
2022/10/04 03:54:59;;;;;;;1.90;1.65;;;;;;;10.38;58.08;95066.47;5069344;28;20119;-74
2022/10/04 03:57:25;;;;;;;3.30;1.75;;;;;;;10.46;58.05;95064.09;5051767;28;20039;-74
2022/10/04 03:59:50;;;;;;;5.45;1.60;;;;;;;10.44;57.82;95060.78;5067707;28;20032;-74
2022/10/04 04:02:25;;;;;;;3.47;1.90;;;;;;;10.40;58.10;95065.41;5027978;28;20021;-75
2022/10/04 04:05:11;;;;;;;3.08;1.80;;;;;;;10.43;57.96;95067.75;5065239;28;20039;-74
2022/10/04 04:07:45;;;;;;;4.93;2.20;;;;;;;10.25;58.33;95030.22;5061309;28;20025;-74
2022/10/04 04:10:25;;;;;;;3.63;2.38;;;;;;;10.34;58.22;95060.69;5038422;28;20497;-74
2022/10/04 04:12:53;;;;;;;2.88;2.28;;;;;;;10.30;58.51;95059.28;5050306;28;20036;-74
2022/10/04 04:15:18;;;;;;;3.35;2.17;;;;;;;10.31;58.53;95060.09;5064141;28;20028;-74
2022/10/04 04:17:51;;;;;;;2.88;2.30;;;;;;;10.34;58.10;95057.28;5059345;28;20044;-75
2022/10/04 04:20:24;;;;;;;2.88;2.28;;;;;;;10.40;58.44;95064.59;5041730;28;20033;-75
2022/10/04 04:23:01;;;;;;;4.10;2.08;;;;;;;10.27;58.68;95075.09;5042807;28;20090;-75
2022/10/04 04:25:27;;;;;;;2.28;1.92;;;;;;;10.27;58.88;95075.91;5051702;28;20033;-73
2022/10/04 04:27:58;;;;;;;2.70;1.73;;;;;;;10.24;58.82;95072.69;5025188;28;20439;-74
2022/10/04 04:30:24;;;;;;;3.53;2.08;;;;;;;10.24;58.60;95083.09;5049108;28;20457;-75
2022/10/04 04:32:51;;;;;;;2.90;1.80;;;;;;;10.16;59.17;95088.88;5034086;28;20028;-75
2022/10/04 04:35:37;;;;;;;3.65;2.05;;;;;;;10.06;59.12;95087.94;5068877;28;20078;-74
2022/10/04 04:38:09;;;;;;;3.10;1.83;;;;;;;10.06;58.63;95093.94;5069046;28;20049;-75
2022/10/04 04:40:36;;;;;;;2.95;1.90;;;;;;;10.01;58.91;95090.88;5069059;28;20127;-75
2022/10/04 04:43:02;;;;;;;3.25;1.92;;;;;;;9.97;59.38;95086.03;5052347;28;20521;-74
2022/10/04 04:45:29;;;;;;;2.60;1.92;;;;;;;10.03;59.25;95093.38;5068141;28;20029;-75
2022/10/04 04:47:57;;;;;;;3.90;2.00;;;;;;;9.97;59.77;95086.88;5052450;28;20455;-74
2022/10/04 04:50:34;;;;;;;4.47;2.22;;;;;;;9.97;59.66;95092.06;5053409;28;20039;-74
2022/10/04 04:53:08;;;;;;;5.70;2.50;;;;;;;9.91;60.03;95091.69;5057846;28;20099;-75
2022/10/04 04:56:01;;;;;;;4.07;2.67;;;;;;;9.95;60.06;95101.72;5072770;28;20410;-74
2022/10/04 04:58:37;;;;;;;3.13;2.30;;;;;;;10.04;59.91;95100.19;5054407;28;20036;-75
2022/10/04 05:01:34;;;;;;;3.42;2.38;;;;;;;10.04;59.78;95100.19;5033826;28;20144;-74
2022/10/04 05:04:11;;;;;;;3.75;2.30;;;;;;;10.11;59.07;95096.16;5072687;28;20490;-74
2022/10/04 05:06:38;;;;;;;3.38;2.20;;;;;;;10.02;59.24;95094.28;5073761;28;20036;-74
2022/10/04 05:09:04;;;;;;;6.30;2.50;;;;;;;10.06;59.54;95093.13;5038583;28;20040;-74
2022/10/04 05:11:38;;;;;;;3.20;2.30;;;;;;;10.11;59.53;95095.34;5039321;28;20028;-75
2022/10/04 05:14:06;;;;;;;3.20;2.38;;;;;;;10.14;59.03;95100.31;5055864;28;20037;-75
2022/10/04 05:16:51;;;;;;;3.88;2.30;;;;;;;10.23;59.03;95104.81;5071274;28;20016;-74
2022/10/04 05:19:23;;;;;;;5.38;2.38;;;;;;;10.33;58.78;95107.56;5055850;28;20486;-74
2022/10/04 05:21:53;;;;;;;2.65;2.13;;;;;;;10.31;58.76;95099.03;5071941;28;20056;-75
2022/10/04 05:24:32;;;;;;;5.63;2.03;;;;;;;10.26;58.61;95104.56;5055881;28;20040;-74
2022/10/04 05:27:06;;;;;;;2.90;2.50;;;;;;;10.30;58.66;95106.00;5048948;28;20039;-75
2022/10/04 05:29:37;;;;;;;2.83;2.20;;;;;;;10.24;58.72;95111.66;5037696;28;20033;-75
2022/10/04 05:32:20;;;;;;;4.10;2.25;;;;;;;10.24;58.90;95112.47;5070470;28;20043;-75
2022/10/04 05:34:47;;;;;;;5.97;2.10;;;;;;;10.28;59.03;95113.94;5071250;28;20029;-75
2022/10/04 05:37:19;;;;;;;3.38;2.30;;;;;;;10.33;58.96;95125.72;5026389;28;20041;-75
2022/10/04 05:40:05;;;;;;;2.53;2.10;;;;;;;10.45;58.46;95122.19;5061409;28;20464;-75
2022/10/04 05:42:40;;;;;;;2.70;2.40;;;;;;;10.53;58.53;95130.22;5058916;28;20033;-75
2022/10/04 05:45:22;;;;;;;3.13;2.40;;;;;;;10.37;58.76;95132.34;5051969;28;20040;-75
2022/10/04 05:47:49;;;;;;;3.67;2.60;;;;;;;10.56;58.09;95132.59;5052079;28;20024;-75
2022/10/04 05:50:39;;;;;;;7.85;2.80;;;;;;;10.65;58.12;95136.22;5044374;28;20502;-75
2022/10/04 05:53:16;;;;;;;4.47;2.50;;;;;;;10.74;58.06;95136.31;5069074;28;20060;-75
2022/10/04 05:55:46;;;;;;;3.15;2.20;;;;;;;10.91;57.39;95148.00;5063293;28;20230;-74
2022/10/04 05:58:27;;;;;;;3.72;2.47;;;;;;;11.49;56.61;95149.50;5054337;28;20129;-75
2022/10/04 06:01:18;;;;;;;2.78;2.30;;;;;;;11.58;55.36;95146.97;5069394;28;20032;-73
2022/10/04 06:04:07;;;;;;;3.25;2.50;;;;;;;11.58;54.67;95146.97;5061414;28;20025;-76
2022/10/04 06:06:42;;;;;;;5.25;2.35;;;;;;;11.72;54.96;95147.63;5054703;28;20406;-75
2022/10/04 06:09:49;;;;;;;2.80;2.20;;;;;;;11.83;54.76;95160.56;5066138;28;20036;-74
2022/10/04 06:12:30;;;;;;;2.88;2.15;;;;;;;11.89;54.15;95160.09;5060964;28;20049;-74
2022/10/04 06:15:25;;;;;;;3.72;2.63;;;;;;;11.89;54.35;95169.69;5055357;28;20029;-73
2022/10/04 06:18:03;;;;;;;4.13;2.75;;;;;;;11.88;53.96;95170.66;5070679;28;20120;-73
2022/10/04 06:20:53;;;;;;;6.93;3.00;;;;;;;11.83;53.99;95176.19;5067209;28;20029;-74
2022/10/04 06:23:20;;;;;;;4.30;2.22;;;;;;;11.93;53.89;95177.13;5057547;28;20033;-74
2022/10/04 06:26:17;;;;;;;3.17;2.65;;;;;;;12.18;53.81;95182.91;5036023;28;20471;-74
2022/10/04 06:28:45;;;;;;;4.07;2.63;;;;;;;12.73;52.60;95183.44;5068722;28;20068;-74
2022/10/04 06:31:23;;;;;;;3.33;2.00;;;;;;;12.64;51.90;95182.44;5052463;28;20028;-74
2022/10/04 06:33:53;;;;;;;6.95;2.42;;;;;;;12.94;51.78;95192.03;5070160;28;20631;-74
2022/10/04 06:36:33;;;;;;;4.10;2.95;;;;;;;13.26;50.73;95188.47;5051922;28;20068;-74
2022/10/04 06:39:28;;;;;;;4.05;2.10;;;;;;;13.58;49.60;95184.78;5059368;28;20068;-74
2022/10/04 06:42:05;;;;;;;5.72;2.88;;;;;;;13.79;49.58;95167.22;5030125;28;20045;-74
2022/10/04 06:44:36;;;;;;;4.07;2.55;;;;;;;13.90;48.27;95181.94;5048898;28;20491;-74
2022/10/04 06:47:26;;;;;;;5.90;2.40;;;;;;;13.66;47.87;95184.94;5051929;28;20552;-74
2022/10/04 06:50:19;;;;;;;3.17;2.00;;;;;;;13.61;48.64;95187.94;5051953;28;20124;-74
2022/10/04 06:52:45;;;;;;;2.45;1.90;;;;;;;13.55;48.58;95177.25;5052178;28;20064;-74
2022/10/04 06:55:19;;;;;;;3.17;2.10;;;;;;;13.85;48.33;95200.59;5068032;28;20078;-74
2022/10/04 06:58:09;;;;;;;2.25;1.67;;;;;;;14.47;47.27;95189.81;5058961;28;20063;-73
2022/10/04 07:01:10;;;;;;;5.65;2.05;;;;;;;14.07;47.09;95191.66;5050458;28;20086;-76
2022/10/04 07:03:39;;;;;;;3.78;2.53;;;;;;;14.13;47.26;95179.84;5060705;28;20056;-75
2022/10/04 07:06:10;;;;;;;2.65;2.10;;;;;;;14.32;46.83;95192.03;5050107;28;20162;-75
2022/10/04 07:08:46;;;;;;;2.63;2.17;;;;;;;14.88;46.23;95188.59;5034420;28;20476;-75
2022/10/04 07:11:23;;;;;;;4.63;1.90;;;;;;;15.27;45.13;95195.44;5050445;28;20033;-75
2022/10/04 07:14:03;;;;;;;3.67;1.70;;;;;;;15.57;44.13;95192.50;5054269;28;20032;-75
2022/10/04 07:16:56;;;;;;;2.95;1.75;;;;;;;15.67;44.38;95195.03;5070996;28;20115;-75
2022/10/04 07:19:23;;;;;;;2.13;1.80;;;;;;;15.15;43.90;95197.41;5070186;28;20404;-75
2022/10/04 07:21:58;;;;;;;3.20;2.10;;;;;;;14.97;44.87;95206.03;5070250;28;20040;-75
2022/10/04 07:24:47;;;;;;;3.47;1.95;;;;;;;14.75;44.93;95201.97;5053358;28;20028;-75
2022/10/04 07:27:33;;;;;;;7.45;1.90;;;;;;;14.69;45.04;95207.78;5070099;28;20038;-75
2022/10/04 07:30:03;;;;;;;5.28;2.30;;;;;;;14.51;45.62;95214.69;5070057;28;20527;-75
2022/10/04 07:32:31;;;;;;;3.38;1.88;;;;;;;14.41;46.20;95216.50;5070066;28;20047;-75
2022/10/04 07:35:04;;;;;;;3.72;2.03;;;;;;;14.39;46.37;95223.66;5052573;28;20029;-75
2022/10/04 07:37:32;;;;;;;4.50;2.15;;;;;;;14.40;46.85;95222.69;5069881;28;20051;-75
2022/10/04 07:40:03;;;;;;;3.97;1.98;;;;;;;14.31;46.21;95217.31;5053272;28;20036;-75
2022/10/04 07:42:36;;;;;;;2.08;1.77;;;;;;;14.33;46.46;95219.00;5069943;28;20490;-75
2022/10/04 07:45:20;;;;;;;2.70;1.90;;;;;;;14.48;46.12;95222.81;5069682;28;20075;-75
2022/10/04 07:47:46;;;;;;;2.72;2.05;;;;;;;14.40;46.20;95220.06;5053431;28;20113;-75
2022/10/04 07:50:27;;;;;;;2.67;1.85;;;;;;;14.62;46.17;95217.16;5069688;28;20464;-75
2022/10/04 07:52:56;;;;;;;4.53;1.90;;;;;;;14.81;45.64;95218.06;5053873;28;20036;-75
2022/10/04 07:55:36;;;;;;;2.72;1.92;;;;;;;14.57;44.61;95234.22;5053204;28;20036;-75
2022/10/04 07:58:17;;;;;;;4.43;2.13;;;;;;;14.60;44.95;95237.41;5069845;28;20025;-75
2022/10/04 08:00:58;;;;;;;2.60;2.20;;;;;;;14.59;44.16;95233.13;5070794;28;20039;-75
2022/10/04 08:03:35;;;;;;;3.10;2.10;;;;;;;14.45;44.38;95229.13;5070029;28;20036;-75
2022/10/04 08:06:26;;;;;;;2.80;1.98;;;;;;;14.52;44.93;95226.84;5069593;28;20029;-75
2022/10/04 08:09:29;;;;;;;3.20;2.30;;;;;;;14.56;45.57;95228.19;5054654;28;20146;-75
2022/10/04 08:12:03;;;;;;;5.05;2.45;;;;;;;14.46;45.42;95229.97;5070857;28;20033;-75
2022/10/04 08:14:52;;;;;;;2.70;2.08;;;;;;;14.35;45.56;95222.28;5069641;28;20086;-75
2022/10/04 08:17:45;;;;;;;3.88;2.30;;;;;;;14.34;46.27;95220.63;5070724;28;20035;-75
2022/10/04 08:20:31;;;;;;;3.03;2.10;;;;;;;14.26;45.16;95229.16;5069516;28;20537;-75
2022/10/04 08:23:34;;;;;;;2.42;2.00;;;;;;;14.23;45.43;95222.44;5069474;28;20020;-75
2022/10/04 08:26:21;;;;;;;3.20;2.05;;;;;;;13.95;45.99;95224.09;5055025;28;20070;-75
2022/10/04 08:29:41;;;;;;;5.53;2.22;;;;;;;13.92;47.15;95218.31;5073626;28;20036;-75
2022/10/04 08:32:39;;;;;;;2.40;2.10;;;;;;;13.94;46.11;95219.03;5070830;28;20051;-75
2022/10/04 08:35:15;;;;;;;3.97;2.08;;;;;;;14.01;47.21;95215.72;5073497;28;20017;-75
2022/10/04 08:38:20;;;;;;;2.90;2.00;;;;;;;14.11;46.52;95223.56;5074870;28;20483;-75
2022/10/04 08:41:07;;;;;;;3.72;2.10;;;;;;;14.01;46.12;95214.88;5074342;28;20039;-75
2022/10/04 08:43:58;;;;;;;2.63;1.92;;;;;;;14.00;45.96;95214.06;5074874;28;20044;-75
2022/10/04 08:46:58;;;;;;;2.28;1.58;;;;;;;14.09;45.75;95208.00;5056545;28;20535;-75
2022/10/04 08:49:45;;;;;;;2.63;1.70;;;;;;;14.15;45.62;95209.25;5073023;28;20154;-75
2022/10/04 08:52:29;;;;;;;2.03;1.40;;;;;;;14.22;45.10;95209.50;5072894;28;20086;-75
2022/10/04 08:55:13;;;;;;;2.58;1.73;;;;;;;14.29;45.26;95211.44;5074163;28;20036;-75
2022/10/04 08:58:01;;;;;;;2.25;1.70;;;;;;;14.40;45.45;95207.00;5074305;28;20025;-75
2022/10/04 09:01:24;;;;;;;3.40;1.70;;;;;;;14.50;44.92;95210.44;5056027;28;20115;-75
2022/10/04 09:04:24;;;;;;;4.22;1.65;;;;;;;14.75;44.47;95203.78;5031694;28;20033;-75
2022/10/04 09:07:08;;;;;;;2.90;1.63;;;;;;;14.91;43.71;95203.19;5010762;28;20091;-74
2022/10/04 09:09:33;;;;;;;3.45;1.67;;;;;;;15.07;43.72;95205.16;5072037;28;20048;-75
2022/10/04 09:12:09;;;;;;;1.90;1.60;;;;;;;15.15;43.70;95207.88;5073841;28;20108;-75
2022/10/04 09:14:34;;;;;;;2.42;1.70;;;;;;;15.25;43.67;95220.91;5072807;28;20052;-74
2022/10/04 09:17:21;;;;;;;1.98;1.50;;;;;;;15.37;42.61;95215.31;5073602;28;20052;-75
2022/10/04 09:20:19;;;;;;;3.55;1.60;;;;;;;15.41;42.74;95221.94;5055677;28;20067;-74
2022/10/04 09:23:04;;;;;;;2.83;1.50;;;;;;;15.40;42.52;95217.66;5072572;28;20402;-74
2022/10/04 09:25:50;;;;;;;2.55;1.65;;;;;;;15.54;42.64;95224.19;5058141;28;20578;-74
2022/10/04 09:28:40;;;;;;;3.30;1.70;;;;;;;15.74;43.03;95216.22;5072496;28;20508;-73
2022/10/04 09:31:29;;;;;;;4.85;1.70;;;;;;;15.84;42.06;95217.00;5073512;28;20499;-74
2022/10/04 09:34:09;;;;;;;2.60;1.65;;;;;;;15.90;42.10;95224.25;5073389;28;20025;-74
2022/10/04 09:36:45;;;;;;;2.40;1.83;;;;;;;16.09;41.88;95224.09;5071602;28;20516;-74
2022/10/04 09:39:38;;;;;;;2.35;1.70;;;;;;;16.14;40.95;95215.78;5055383;28;20052;-74
2022/10/04 09:42:22;;;;;;;2.75;1.67;;;;;;;16.27;41.07;95223.28;5073322;28;20024;-74
2022/10/04 09:45:04;;;;;;;3.25;2.00;;;;;;;16.26;41.32;95204.06;5072015;28;20037;-74
2022/10/04 09:47:36;;;;;;;2.30;1.75;;;;;;;16.39;40.82;95219.41;5072230;28;20100;-74
2022/10/04 09:50:25;;;;;;;3.25;1.40;;;;;;;16.29;41.10;95221.28;5073085;28;20028;-73
2022/10/04 09:53:29;;;;;;;2.78;1.55;;;;;;;16.26;40.19;95222.41;5073335;28;20024;-73
2022/10/04 09:56:25;;;;;;;2.08;1.58;;;;;;;16.18;41.22;95218.91;5073017;28;20265;-73
2022/10/04 09:59:20;;;;;;;2.60;1.70;;;;;;;16.29;41.05;95222.13;5072042;28;20033;-73
2022/10/04 10:02:12;;;;;;;3.28;1.52;;;;;;;16.27;40.60;95224.09;5072806;28;20616;-74
2022/10/04 10:04:48;;;;;;;;;;;;;;;16.09;40.67;95224.09;5072084;28;20090;-73
2022/10/04 10:07:48;;;;;;;3.05;1.90;;;;;;;15.87;41.11;95216.69;5071490;28;19912;-73
2022/10/04 10:16:08;;;;;;;2.30;1.60;;;;;;;16.34;41.56;95221.66;5071615;28;20135;-74
2022/10/04 10:18:52;;;;;;;4.85;1.90;;;;;;;16.34;40.88;95218.22;5073066;28;20547;-73
2022/10/04 10:21:35;;;;;;;2.17;1.73;;;;;;;16.46;40.26;95230.91;5072455;28;20040;-73
2022/10/04 10:24:03;;;;;;;3.33;1.65;;;;;;;16.59;40.20;95222.66;5071285;28;20101;-74
2022/10/04 10:26:47;;;;;;;3.13;1.65;;;;;;;16.60;40.20;95223.47;5072443;28;20470;-73
2022/10/04 10:29:23;;;;;;;1.85;1.60;;;;;;;16.58;40.46;95222.84;5071085;28;20047;-73
2022/10/04 10:32:10;;;;;;;1.73;1.45;;;;;;;16.45;39.76;95225.84;5071107;28;20044;-73
2022/10/04 10:35:05;;;;;;;3.60;1.90;;;;;;;16.29;40.46;95221.28;5072647;28;20099;-73
2022/10/04 10:37:57;;;;;;;2.10;1.80;;;;;;;16.24;40.96;95234.03;5071229;28;20040;-73
2022/10/04 10:40:39;;;;;;;2.83;1.80;;;;;;;16.20;41.76;95232.69;5039391;28;20041;-73
2022/10/04 10:43:26;;;;;;;2.42;1.73;;;;;;;15.96;41.68;95233.31;5055639;28;20418;-73
2022/10/04 10:46:22;;;;;;;2.72;2.20;;;;;;;15.60;42.33;95228.84;5072013;28;20031;-73
2022/10/04 10:49:02;;;;;;;3.58;1.88;;;;;;;15.64;43.31;95224.94;5070438;28;20506;-73
2022/10/04 10:52:00;;;;;;;2.40;1.70;;;;;;;15.44;42.35;95228.66;5070801;28;20035;-73
2022/10/04 10:54:50;;;;;;;7.38;2.25;;;;;;;15.50;43.06;95230.69;5070878;28;20403;-73
2022/10/04 10:57:46;;;;;;;2.95;2.05;;;;;;;15.42;43.36;95222.75;5071946;28;20506;-72
2022/10/04 11:00:22;;;;;;;2.90;2.33;;;;;;;15.36;43.13;95233.81;5070370;28;20055;-73
2022/10/04 11:03:12;;;;;;;4.95;2.25;;;;;;;15.38;43.48;95234.50;5070645;28;20033;-73
2022/10/04 11:05:44;;;;;;;2.85;1.90;;;;;;;15.48;43.06;95224.78;5070345;28;20032;-73
2022/10/04 11:09:03;;;;;;;2.20;1.90;;;;;;;15.63;43.36;95220.69;5071960;28;20414;-73
2022/10/04 11:11:47;;;;;;;3.55;2.20;;;;;;;15.58;42.67;95224.72;5027100;28;20563;-73
2022/10/04 11:14:38;;;;;;;2.70;2.00;;;;;;;15.68;42.98;95222.88;5071524;28;20109;-73
2022/10/04 11:17:27;;;;;;;3.45;1.90;;;;;;;15.74;43.13;95221.47;5070222;28;20089;-73
2022/10/04 11:20:30;;;;;;;2.28;1.92;;;;;;;15.83;43.74;95220.59;5070055;28;20040;-73
2022/10/04 11:23:32;;;;;;;3.20;2.10;;;;;;;15.84;43.18;95224.84;5071555;28;20039;-73
2022/10/04 11:26:16;;;;;;;2.40;2.00;;;;;;;15.85;42.65;95224.72;5071228;28;20036;-73
2022/10/04 11:28:45;;;;;;;3.35;2.03;;;;;;;15.83;42.43;95228.44;5054759;28;20453;-73
2022/10/04 11:31:23;;;;;;;2.97;2.30;;;;;;;15.87;43.66;95235.03;5069987;28;20119;-73
2022/10/04 11:34:38;;;;;;;3.03;1.90;;;;;;;16.06;42.90;95226.19;5070191;28;20033;-72
2022/10/04 11:37:40;;;;;;;3.08;2.17;;;;;;;16.13;42.53;95237.72;5048628;28;20040;-73
2022/10/04 11:40:05;;;;;;;2.60;2.28;;;;;;;15.95;42.71;95235.09;5071009;28;20040;-72
2022/10/04 11:43:01;;;;;;;2.95;1.90;;;;;;;15.82;42.96;95239.88;5071299;28;20077;-72
2022/10/04 11:45:35;;;;;;;3.53;2.20;;;;;;;15.83;43.53;95226.66;5071027;28;20115;-73
2022/10/04 11:48:20;;;;;;;5.00;2.50;;;;;;;15.67;43.79;95230.88;5069964;28;20110;-74
2022/10/04 11:51:02;;;;;;;2.38;2.10;;;;;;;15.63;43.98;95231.16;5069877;28;20032;-73
2022/10/04 11:54:06;;;;;;;4.00;2.35;;;;;;;15.71;44.77;95240.09;5069941;28;20035;-71
2022/10/04 11:56:59;;;;;;;4.70;2.20;;;;;;;15.57;44.12;95234.38;5068845;28;20064;-72
2022/10/04 11:59:37;;;;;;;3.15;2.10;;;;;;;15.64;43.09;95238.03;5068796;28;20075;-73
2022/10/04 12:02:35;;;;;;;2.38;2.10;;;;;;;15.85;43.55;95244.81;5070883;28;20025;-73
2022/10/04 12:05:26;;;;;;;2.88;2.03;;;;;;;15.84;43.13;95243.19;5064980;28;20087;-73
2022/10/04 12:08:16;;;;;;;2.40;1.75;;;;;;;15.74;43.13;95237.19;5069895;28;20074;-73
2022/10/04 12:10:42;;;;;;;3.40;1.80;;;;;;;15.70;43.06;95235.84;5071070;28;20067;-73
2022/10/04 12:13:23;;;;;;;2.40;1.92;;;;;;;15.66;42.64;95227.44;5052896;28;20060;-73
2022/10/04 12:16:00;;;;;;;;;;;;;;;15.52;42.98;95235.78;5069873;28;20040;-73
2022/10/04 12:18:41;;;;;;;2.88;2.05;;;;;;;15.65;44.30;95229.19;5069670;28;20365;-73
2022/10/04 12:21:15;;;;;;;2.58;1.95;;;;;;;15.67;43.16;95236.09;5069406;28;20116;-73
2022/10/04 12:24:03;;;;;;;3.53;2.47;;;;;;;15.59;43.39;95236.84;5071160;28;20082;-73
2022/10/04 12:26:37;;;;;;;3.85;2.20;;;;;;;15.54;43.41;95237.25;5070535;28;20107;-73
2022/10/04 12:29:09;;;;;;;4.20;2.15;;;;;;;15.42;43.13;95227.97;5070909;28;20029;-73
2022/10/04 12:31:44;;;;;;;2.30;2.10;;;;;;;15.37;45.12;95232.81;5069256;28;20028;-73
2022/10/04 12:34:15;;;;;;;2.65;1.90;;;;;;;15.37;43.46;95235.44;5070528;28;20040;-73
2022/10/04 12:36:51;;;;;;;2.28;2.00;;;;;;;15.53;42.88;95237.44;5068960;28;20102;-73